Grand Junction, Michigan
Current Conditions -  °F | °C
As of 10:15 AM on Monday 24 Nov 2014 (Local Time) from KLWA Reporting Station
Moderate Rain Moderate Rain  
Wind Chill: 50°   Ceiling: 300
Heat Index: 50°   Visibility: 3mi
Dew Point: 49°   Wind: 8mph
Humidity: 97%   Direction: 250°WSW
Pressure: 29.07"   Gusts: NA
Location:  42.4°N, 86.07°W
Report Text: KLWA 241515Z AUTO 25007KT 3SM RA OVC003 10/10 A2907 RMK AO2 T01000095
Loading
Personal Weather Stations






























Interactive Weather Map New forecast layout! Learn more

10-Day Weather Forecast

Advertisements
Track Severe Weather on mobile